createdAt,value
2023-04-29T00:02:05.202Z,71.32
2023-04-29T00:04:32.824Z,71.35
2023-04-29T00:07:00.315Z,71.35
2023-04-29T00:09:27.629Z,70.98
2023-04-29T00:11:55.027Z,70.65
2023-04-29T00:14:22.382Z,70.29
2023-04-29T00:16:49.682Z,71.10
2023-04-29T00:19:18.369Z,71.04
2023-04-29T00:21:45.686Z,71.00
2023-04-29T00:24:12.958Z,71.17
2023-04-29T00:26:41.328Z,71.06
2023-04-29T00:29:08.743Z,70.81
2023-04-29T00:31:37.461Z,71.68
2023-04-29T00:34:05.330Z,72.01
2023-04-29T00:36:32.985Z,72.76
2023-04-29T00:39:00.375Z,73.40
2023-04-29T00:41:27.861Z,72.82
2023-04-29T00:43:55.255Z,72.37
2023-04-29T00:46:22.695Z,71.77
2023-04-29T00:48:50.220Z,71.95
2023-04-29T00:51:18.483Z,72.06
2023-04-29T00:53:47.399Z,73.06
2023-04-29T00:56:16.040Z,71.40
2023-04-29T00:58:49.795Z,71.55
2023-04-29T01:01:17.456Z,71.57
2023-04-29T01:03:45.707Z,71.52
2023-04-29T01:06:49.660Z,71.32
2023-04-29T01:09:23.989Z,71.74
2023-04-29T01:12:11.472Z,72.27
2023-04-29T01:14:39.759Z,72.34
2023-04-29T01:17:11.777Z,72.21
2023-04-29T01:19:48.420Z,72.21
2023-04-29T01:22:18.482Z,72.06
2023-04-29T01:24:46.368Z,71.37
2023-04-29T01:27:23.604Z,71.65
2023-04-29T01:30:03.049Z,72.44
2023-04-29T01:32:58.692Z,72.81
2023-04-29T01:35:35.001Z,72.74
2023-04-29T01:38:23.571Z,73.30
2023-04-29T01:41:05.964Z,73.45
2023-04-29T01:43:35.993Z,73.12
2023-04-29T01:46:11.802Z,73.37
2023-04-29T01:48:39.547Z,72.48
2023-04-29T01:51:07.304Z,73.03
2023-04-29T01:53:34.971Z,73.05
2023-04-29T01:56:02.375Z,73.82
2023-04-29T01:58:41.374Z,73.49
2023-04-29T02:01:34.198Z,73.20
2023-04-29T02:04:03.146Z,72.98
2023-04-29T02:06:32.286Z,73.23
2023-04-29T02:09:03.033Z,74.43
2023-04-29T02:11:32.556Z,74.17
2023-04-29T02:13:59.975Z,74.06
2023-04-29T02:16:28.268Z,73.15
2023-04-29T02:19:02.445Z,71.78
2023-04-29T02:21:29.873Z,71.88
2023-04-29T02:23:57.291Z,72.62
2023-04-29T02:26:25.726Z,73.18
2023-04-29T02:28:57.266Z,73.11
2023-04-29T02:31:24.724Z,74.22
2023-04-29T02:33:52.291Z,74.83
2023-04-29T02:36:20.221Z,74.24
2023-04-29T02:38:50.658Z,72.35
2023-04-29T02:41:18.479Z,73.82
2023-04-29T02:43:52.040Z,74.25
2023-04-29T02:46:19.984Z,74.92
2023-04-29T02:48:47.520Z,75.66
2023-04-29T02:51:16.372Z,75.34
2023-04-29T02:53:44.191Z,74.68
2023-04-29T02:56:11.697Z,75.21
2023-04-29T02:58:39.325Z,75.53
2023-04-29T03:01:07.282Z,76.70
2023-04-29T03:03:34.979Z,76.56
2023-04-29T03:06:02.528Z,77.50
2023-04-29T03:08:29.933Z,77.40
2023-04-29T03:10:57.471Z,75.63
2023-04-29T03:13:25.062Z,75.87
2023-04-29T03:15:52.589Z,76.00
2023-04-29T03:18:20.043Z,76.74
2023-04-29T03:20:48.725Z,76.97
2023-04-29T03:23:16.107Z,77.85
2023-04-29T03:25:43.681Z,78.11
2023-04-29T03:28:11.154Z,77.06
2023-04-29T03:30:38.935Z,77.38
2023-04-29T03:33:06.452Z,77.43
2023-04-29T03:35:34.074Z,77.90
2023-04-29T03:38:27.796Z,78.06
2023-04-29T03:40:56.067Z,77.94
2023-04-29T03:43:23.548Z,78.46
2023-04-29T03:45:51.608Z,78.34
2023-04-29T03:48:22.193Z,78.76
2023-04-29T03:50:49.669Z,79.52
2023-04-29T03:53:17.394Z,80.12
2023-04-29T03:55:44.984Z,79.88
2023-04-29T03:58:12.409Z,80.73
2023-04-29T04:00:39.885Z,80.71
2023-04-29T04:03:12.681Z,80.70
2023-04-29T04:05:40.191Z,80.48
2023-04-29T04:08:11.560Z,81.15
2023-04-29T04:10:53.085Z,80.38
2023-04-29T04:13:37.984Z,80.91
2023-04-29T04:16:06.168Z,81.58
2023-04-29T04:18:33.709Z,81.47
2023-04-29T04:21:06.443Z,81.28
2023-04-29T04:23:33.985Z,81.08
2023-04-29T04:26:02.769Z,81.14
2023-04-29T04:28:50.495Z,81.42
2023-04-29T04:31:46.806Z,81.70
2023-04-29T04:34:16.100Z,81.97
2023-04-29T04:36:44.566Z,81.28
2023-04-29T04:39:11.998Z,81.30
2023-04-29T04:41:39.576Z,82.02
2023-04-29T04:44:07.209Z,81.50
2023-04-29T04:46:52.235Z,81.20
2023-04-29T04:49:33.934Z,80.79
2023-04-29T04:52:01.861Z,80.83
2023-04-29T04:54:29.356Z,81.90
2023-04-29T04:57:06.320Z,81.79
2023-04-29T04:59:34.322Z,82.12
2023-04-29T05:02:02.097Z,81.83
2023-04-29T05:04:29.914Z,82.13
2023-04-29T05:06:57.544Z,82.10
2023-04-29T05:09:28.309Z,82.18
2023-04-29T05:11:56.160Z,82.02
2023-04-29T05:14:23.618Z,82.51
2023-04-29T05:16:52.846Z,83.31
2023-04-29T05:19:21.335Z,83.96
2023-04-29T05:21:48.720Z,83.06
2023-04-29T05:24:17.012Z,83.35
2023-04-29T05:26:45.028Z,83.60
2023-04-29T05:29:12.610Z,84.34
2023-04-29T05:31:48.016Z,84.63
2023-04-29T05:34:15.783Z,84.70
2023-04-29T05:36:43.259Z,84.23
2023-04-29T05:39:10.702Z,84.59
2023-04-29T05:41:38.127Z,84.78
2023-04-29T05:44:19.556Z,84.69
2023-04-29T05:46:48.793Z,84.35
2023-04-29T05:49:16.714Z,83.99
2023-04-29T05:51:44.099Z,83.94
2023-04-29T05:54:11.478Z,84.45
2023-04-29T05:56:38.880Z,83.88
2023-04-29T05:59:06.316Z,83.93
2023-04-29T06:01:34.105Z,84.16
2023-04-29T06:04:01.762Z,83.69
2023-04-29T06:06:43.723Z,83.06
2023-04-29T06:09:27.527Z,82.63
2023-04-29T06:11:57.976Z,81.54
2023-04-29T06:14:25.631Z,81.48
2023-04-29T06:16:53.896Z,81.37
2023-04-29T06:19:21.680Z,81.87
2023-04-29T06:21:49.751Z,81.70
2023-04-29T06:24:17.262Z,80.50
2023-04-29T06:26:44.823Z,80.33
2023-04-29T06:29:12.519Z,79.44
2023-04-29T06:31:40.115Z,78.37
2023-04-29T06:34:09.121Z,78.52
2023-04-29T06:36:45.493Z,78.49
2023-04-29T06:39:40.460Z,79.47
2023-04-29T06:42:16.275Z,78.87
2023-04-29T06:45:03.750Z,78.07
2023-04-29T06:47:46.667Z,77.92
2023-04-29T06:50:23.866Z,77.73
2023-04-29T06:52:52.631Z,77.50
2023-04-29T06:55:24.149Z,77.35
2023-04-29T06:57:52.111Z,77.49
2023-04-29T07:00:21.193Z,77.66
2023-04-29T07:02:48.960Z,78.22
2023-04-29T07:05:16.876Z,76.61
2023-04-29T07:07:44.356Z,76.05
2023-04-29T07:10:11.922Z,75.94
2023-04-29T07:12:39.799Z,75.36
2023-04-29T07:15:07.779Z,73.92
2023-04-29T07:17:35.244Z,75.41
2023-04-29T07:20:04.212Z,74.79
2023-04-29T07:22:31.695Z,72.86
2023-04-29T07:24:59.230Z,72.50
2023-04-29T07:27:26.795Z,71.91
2023-04-29T07:29:54.247Z,72.15
2023-04-29T07:32:22.700Z,73.10
2023-04-29T07:34:50.293Z,71.32
2023-04-29T07:37:17.760Z,71.52
2023-04-29T07:39:45.775Z,71.84
2023-04-29T07:42:13.580Z,71.22
2023-04-29T07:44:41.812Z,71.06
2023-04-29T07:47:09.548Z,69.73
2023-04-29T07:49:37.473Z,68.67
2023-04-29T07:52:06.209Z,66.22
2023-04-29T07:54:33.575Z,67.59
2023-04-29T07:57:03.617Z,67.59
2023-04-29T07:59:32.229Z,68.01
2023-04-29T08:01:59.821Z,67.60
2023-04-29T08:04:27.943Z,67.32
2023-04-29T08:07:04.516Z,64.62
2023-04-29T08:09:32.381Z,65.98
2023-04-29T08:11:59.852Z,65.93
2023-04-29T08:14:27.228Z,67.09
2023-04-29T08:16:55.753Z,68.02
2023-04-29T08:19:23.298Z,67.86
2023-04-29T08:21:52.120Z,67.59
2023-04-29T08:24:20.737Z,65.83
2023-04-29T08:26:48.391Z,64.89
2023-04-29T08:29:17.090Z,64.70
2023-04-29T08:31:45.185Z,64.47
2023-04-29T08:34:12.895Z,64.40
2023-04-29T08:36:40.448Z,64.19
2023-04-29T08:39:07.887Z,64.76
2023-04-29T08:41:37.033Z,64.35
2023-04-29T08:44:05.170Z,63.22
2023-04-29T08:46:32.849Z,61.87
2023-04-29T08:49:04.480Z,61.75
2023-04-29T08:51:33.353Z,61.61
2023-04-29T08:54:00.779Z,59.37
2023-04-29T08:56:31.051Z,59.82
2023-04-29T08:58:59.266Z,59.77
2023-04-29T09:01:30.579Z,56.02
2023-04-29T09:04:12.526Z,52.94
2023-04-29T09:06:40.535Z,53.68
2023-04-29T09:09:08.986Z,53.60
2023-04-29T09:11:37.526Z,53.14
2023-04-29T09:14:05.181Z,51.72
2023-04-29T09:16:32.607Z,51.66
2023-04-29T09:19:00.091Z,52.90
2023-04-29T09:21:29.022Z,53.35
2023-04-29T09:23:58.010Z,54.13
2023-04-29T09:26:26.795Z,53.63
2023-04-29T09:29:11.894Z,51.59
2023-04-29T09:31:40.093Z,50.84
2023-04-29T09:34:08.235Z,50.89
2023-04-29T09:36:57.044Z,51.07
2023-04-29T09:39:25.239Z,51.23
2023-04-29T09:41:52.741Z,51.67
2023-04-29T09:44:23.149Z,53.29
2023-04-29T09:47:04.236Z,52.61
2023-04-29T09:49:37.307Z,50.95
2023-04-29T09:52:10.712Z,49.79
2023-04-29T09:54:39.959Z,50.10
2023-04-29T09:57:16.104Z,51.84
2023-04-29T09:59:43.921Z,52.42
2023-04-29T10:02:18.854Z,52.58
2023-04-29T10:04:48.512Z,50.88
2023-04-29T10:07:17.683Z,50.25
2023-04-29T10:09:47.710Z,51.64
2023-04-29T10:12:20.406Z,51.11
2023-04-29T10:15:00.948Z,51.39
2023-04-29T10:17:45.149Z,52.22
2023-04-29T10:20:24.689Z,52.40
2023-04-29T10:22:57.122Z,51.07
2023-04-29T10:25:26.283Z,51.52
2023-04-29T10:27:55.937Z,50.85
2023-04-29T10:30:23.562Z,50.81
2023-04-29T10:32:52.664Z,51.26
2023-04-29T10:35:25.640Z,50.33
2023-04-29T10:37:54.271Z,49.96
2023-04-29T10:40:49.603Z,49.76
2023-04-29T10:43:25.435Z,50.33
2023-04-29T10:46:17.498Z,49.70
2023-04-29T10:48:45.987Z,50.38
2023-04-29T10:51:14.440Z,50.33
2023-04-29T10:54:15.592Z,49.57
2023-04-29T10:56:54.140Z,50.10
2023-04-29T10:59:46.103Z,50.39
2023-04-29T11:02:15.249Z,50.54
2023-04-29T11:05:09.151Z,49.82
2023-04-29T11:07:36.970Z,50.21
2023-04-29T11:10:04.640Z,50.52
2023-04-29T11:12:32.052Z,49.36
2023-04-29T11:15:04.927Z,49.90
2023-04-29T11:17:38.178Z,48.45
2023-04-29T11:20:10.436Z,49.24
2023-04-29T11:22:38.217Z,50.03
2023-04-29T11:25:07.380Z,49.34
2023-04-29T11:27:37.136Z,49.96
2023-04-29T11:30:07.656Z,50.30
2023-04-29T11:32:41.299Z,51.00
2023-04-29T11:35:16.212Z,50.67
2023-04-29T11:37:45.672Z,50.26
2023-04-29T11:40:14.471Z,51.14
2023-04-29T11:42:45.364Z,51.33
2023-04-29T11:45:13.087Z,50.42
2023-04-29T11:47:45.891Z,51.23
2023-04-29T11:50:17.905Z,50.77
2023-04-29T11:52:47.510Z,50.63
2023-04-29T11:55:15.214Z,50.62
2023-04-29T11:57:42.591Z,51.34
2023-04-29T12:00:13.840Z,51.08
2023-04-29T12:02:44.362Z,51.13
2023-04-29T12:05:13.371Z,50.19
2023-04-29T12:07:41.313Z,51.60
2023-04-29T12:10:10.990Z,51.59
2023-04-29T12:12:41.037Z,52.18
2023-04-29T12:15:10.345Z,52.34
2023-04-29T12:17:39.002Z,51.81
2023-04-29T12:20:09.475Z,51.31
2023-04-29T12:22:37.062Z,52.56
2023-04-29T12:25:05.422Z,52.96
2023-04-29T12:27:34.556Z,52.67
2023-04-29T12:30:02.023Z,53.11
2023-04-29T12:32:29.598Z,52.48
2023-04-29T12:34:56.991Z,52.49
2023-04-29T12:37:24.493Z,52.27
2023-04-29T12:39:52.901Z,53.00
2023-04-29T12:42:20.564Z,53.93
2023-04-29T12:44:49.222Z,53.91
2023-04-29T12:47:17.233Z,53.97
2023-04-29T12:49:46.833Z,54.62
2023-04-29T12:52:14.586Z,54.50
2023-04-29T12:54:43.821Z,54.84
2023-04-29T12:57:12.483Z,54.22
2023-04-29T12:59:41.438Z,54.07
2023-04-29T13:02:09.051Z,54.11
2023-04-29T13:04:36.672Z,54.09
2023-04-29T13:07:04.850Z,53.71
2023-04-29T13:09:32.442Z,54.09
2023-04-29T13:11:59.820Z,54.35
2023-04-29T13:14:27.686Z,53.53
2023-04-29T13:16:55.137Z,53.87
2023-04-29T13:21:53.110Z,54.04
2023-04-29T13:24:21.126Z,54.66
2023-04-29T13:26:52.258Z,55.72
2023-04-29T13:29:19.932Z,55.70
2023-04-29T13:31:47.246Z,55.79
2023-04-29T13:34:14.689Z,56.36
2023-04-29T13:36:42.191Z,54.83
2023-04-29T13:39:10.531Z,54.72
2023-04-29T13:41:41.244Z,54.90
2023-04-29T13:44:23.474Z,54.80
2023-04-29T13:46:55.613Z,53.60
2023-04-29T13:49:55.982Z,54.27
2023-04-29T13:59:48.820Z,55.56
2023-04-29T14:02:25.671Z,55.90
2023-04-29T14:04:54.469Z,55.12
2023-04-29T14:07:23.006Z,55.60
2023-04-29T14:09:50.519Z,55.21
2023-04-29T14:12:17.933Z,54.92
2023-04-29T14:14:45.412Z,55.22
2023-04-29T14:17:13.020Z,55.13
2023-04-29T14:19:40.998Z,55.57
2023-04-29T14:22:08.543Z,55.58
2023-04-29T14:24:36.053Z,56.31
2023-04-29T14:27:03.701Z,56.46
2023-04-29T14:29:31.133Z,56.73
2023-04-29T14:31:58.583Z,56.93
2023-04-29T14:34:26.145Z,56.22
2023-04-29T14:36:54.172Z,55.83
2023-04-29T14:39:26.950Z,56.45
2023-04-29T14:41:54.376Z,56.83
2023-04-29T14:44:21.779Z,56.58
2023-04-29T14:46:49.228Z,56.61
2023-04-29T14:49:16.626Z,57.12
2023-04-29T14:51:44.247Z,56.75
2023-04-29T14:54:12.502Z,56.61
2023-04-29T14:56:47.605Z,57.17
2023-04-29T14:59:15.064Z,57.74
2023-04-29T15:01:42.913Z,57.18
2023-04-29T15:04:12.824Z,56.43
2023-04-29T15:06:40.831Z,56.87
2023-04-29T15:09:08.231Z,57.16
2023-04-29T15:11:35.775Z,57.54
2023-04-29T15:14:03.289Z,57.41
2023-04-29T15:16:31.684Z,57.83
2023-04-29T15:18:59.292Z,58.18
2023-04-29T15:21:27.204Z,58.66
2023-04-29T15:23:54.873Z,58.81
2023-04-29T15:26:22.673Z,59.27
2023-04-29T15:28:50.163Z,58.48
2023-04-29T15:31:17.618Z,58.88
2023-04-29T15:33:44.975Z,58.90
2023-04-29T15:36:13.327Z,58.97
2023-04-29T15:38:41.567Z,58.60
2023-04-29T15:41:08.996Z,58.75
2023-04-29T15:43:36.723Z,57.69
2023-04-29T15:46:04.305Z,58.82
2023-04-29T15:48:31.800Z,59.06
2023-04-29T15:50:59.230Z,58.69
2023-04-29T15:53:26.676Z,58.51
2023-04-29T15:55:54.653Z,59.36
2023-04-29T15:58:22.143Z,56.41
2023-04-29T16:00:50.958Z,56.80
2023-04-29T16:03:18.570Z,56.61
2023-04-29T16:05:46.060Z,56.66
2023-04-29T16:08:13.514Z,56.21
2023-04-29T16:10:41.091Z,56.38
2023-04-29T16:13:08.481Z,56.64
2023-04-29T16:15:36.667Z,56.92
2023-04-29T16:18:04.162Z,57.24
2023-04-29T16:20:32.380Z,57.63
2023-04-29T16:22:59.925Z,57.84
2023-04-29T16:25:27.258Z,58.06
2023-04-29T16:27:54.770Z,58.20
2023-04-29T16:30:22.394Z,57.89
2023-04-29T16:32:49.775Z,57.23
2023-04-29T16:35:17.299Z,56.80
2023-04-29T16:37:44.745Z,57.25
2023-04-29T16:40:12.961Z,57.60
2023-04-29T16:42:40.587Z,57.32
2023-04-29T16:45:09.017Z,57.09
2023-04-29T16:47:37.743Z,56.87
2023-04-29T16:50:09.499Z,56.96
2023-04-29T16:52:36.876Z,57.18
2023-04-29T16:55:04.628Z,57.00
2023-04-29T16:57:33.536Z,56.08
2023-04-29T17:00:00.981Z,56.96
2023-04-29T17:02:29.627Z,57.44
2023-04-29T17:04:57.287Z,57.97
2023-04-29T17:07:24.856Z,57.75
2023-04-29T17:09:52.562Z,58.16
2023-04-29T17:12:20.284Z,58.57
2023-04-29T17:14:48.472Z,59.05
2023-04-29T17:17:15.887Z,58.64
2023-04-29T17:19:43.643Z,58.03
2023-04-29T17:22:10.998Z,58.20
2023-04-29T17:24:38.428Z,58.49
2023-04-29T17:27:05.973Z,59.02
2023-04-29T17:29:33.470Z,59.24
2023-04-29T17:32:02.173Z,58.57
2023-04-29T17:34:31.132Z,58.73
2023-04-29T17:36:58.600Z,59.35
2023-04-29T17:39:26.042Z,59.40
2023-04-29T17:42:11.998Z,60.22
2023-04-29T17:44:39.462Z,60.27
2023-04-29T17:47:09.360Z,59.72
2023-04-29T17:49:36.875Z,59.50
2023-04-29T17:52:04.793Z,59.62
2023-04-29T17:54:32.418Z,60.01
2023-04-29T17:57:02.128Z,59.62
2023-04-29T17:59:30.761Z,59.59
2023-04-29T18:01:58.866Z,59.63
2023-04-29T18:04:26.297Z,59.92
2023-04-29T18:06:53.745Z,59.85
2023-04-29T18:09:21.305Z,60.29
2023-04-29T18:11:49.230Z,60.69
2023-04-29T18:14:16.638Z,60.70
2023-04-29T18:16:44.227Z,60.91
2023-04-29T18:19:12.384Z,61.36
2023-04-29T18:21:39.942Z,61.86
2023-04-29T18:24:07.855Z,62.38
2023-04-29T18:26:35.874Z,63.86
2023-04-29T18:29:04.484Z,63.96
2023-04-29T18:31:31.906Z,64.83
2023-04-29T18:33:59.359Z,65.29
2023-04-29T18:36:28.131Z,65.41
2023-04-29T18:38:55.911Z,66.30
2023-04-29T18:41:23.379Z,66.33
2023-04-29T18:43:50.802Z,67.32
2023-04-29T18:46:18.478Z,67.23
2023-04-29T18:48:45.991Z,67.98
2023-04-29T18:51:13.492Z,68.32
2023-04-29T18:53:41.053Z,68.21
2023-04-29T18:56:08.869Z,68.32
2023-04-29T18:58:36.686Z,69.09
2023-04-29T19:01:04.366Z,69.08
2023-04-29T19:03:31.827Z,69.32
2023-04-29T19:05:59.901Z,69.87
2023-04-29T19:08:27.438Z,70.41
2023-04-29T19:10:55.168Z,69.81
2023-04-29T19:13:23.173Z,69.96
2023-04-29T19:15:51.128Z,70.23
2023-04-29T19:18:20.179Z,70.37
2023-04-29T19:20:48.845Z,70.84
2023-04-29T19:23:16.482Z,71.23
2023-04-29T19:25:44.107Z,71.38
2023-04-29T19:28:11.785Z,71.27
2023-04-29T19:30:39.220Z,71.94
2023-04-29T19:33:06.878Z,71.67
2023-04-29T19:35:34.399Z,71.46
2023-04-29T19:38:01.843Z,72.33
2023-04-29T19:40:29.213Z,71.37
2023-04-29T19:42:56.631Z,72.56
2023-04-29T19:45:24.486Z,71.73
2023-04-29T19:47:52.228Z,71.66
2023-04-29T19:50:19.756Z,70.98
2023-04-29T19:52:47.829Z,70.17
2023-04-29T19:55:15.307Z,70.01
2023-04-29T19:57:42.678Z,69.91
2023-04-29T20:00:11.795Z,69.60
2023-04-29T20:02:39.398Z,69.80
2023-04-29T20:05:07.354Z,69.67
2023-04-29T20:07:34.863Z,69.59
2023-04-29T20:10:02.998Z,69.69
2023-04-29T20:12:30.434Z,70.58
2023-04-29T20:14:58.435Z,71.80
2023-04-29T20:17:25.989Z,72.22
2023-04-29T20:19:53.709Z,72.75
2023-04-29T20:22:22.066Z,72.91
2023-04-29T20:24:49.574Z,73.25
2023-04-29T20:27:17.079Z,73.59
2023-04-29T20:29:45.056Z,73.59
2023-04-29T20:32:12.777Z,72.82
2023-04-29T20:34:40.466Z,71.78
2023-04-29T20:37:08.014Z,71.87
2023-04-29T20:39:35.450Z,71.91
2023-04-29T20:42:03.240Z,71.67
2023-04-29T20:44:30.987Z,71.58
2023-04-29T20:46:58.466Z,71.18
2023-04-29T20:49:26.367Z,71.06
2023-04-29T20:51:53.750Z,70.73
2023-04-29T20:54:21.548Z,70.43
2023-04-29T20:56:49.042Z,70.61
2023-04-29T20:59:16.408Z,71.87
2023-04-29T21:01:45.476Z,72.72
2023-04-29T21:04:12.998Z,74.95
2023-04-29T21:06:40.428Z,75.96
2023-04-29T21:09:09.032Z,77.66
2023-04-29T21:11:36.604Z,79.62
2023-04-29T21:14:03.947Z,81.46
2023-04-29T21:16:31.378Z,83.68
2023-04-29T21:18:58.951Z,84.79
2023-04-29T21:21:26.348Z,85.97
2023-04-29T21:23:53.698Z,86.54
2023-04-29T21:26:21.389Z,86.96
2023-04-29T21:28:49.370Z,87.94
2023-04-29T21:31:17.225Z,88.70
2023-04-29T21:33:45.107Z,88.67
2023-04-29T21:36:12.950Z,88.04
2023-04-29T21:38:42.672Z,87.42
2023-04-29T21:41:24.618Z,87.16
2023-04-29T21:43:51.980Z,85.62
2023-04-29T21:46:20.260Z,85.28
2023-04-29T21:48:47.621Z,85.27
2023-04-29T21:51:15.017Z,84.55
2023-04-29T21:53:42.786Z,85.24
2023-04-29T21:56:10.085Z,85.62
2023-04-29T21:58:37.438Z,85.55
2023-04-29T22:01:24.993Z,84.77
2023-04-29T22:03:54.061Z,84.83
2023-04-29T22:06:21.498Z,84.95
2023-04-29T22:08:49.134Z,85.61
2023-04-29T22:11:16.984Z,86.15
2023-04-29T22:13:45.683Z,87.45
2023-04-29T22:16:13.180Z,87.65
2023-04-29T22:18:40.569Z,87.91
2023-04-29T22:21:07.898Z,87.99
2023-04-29T22:23:35.220Z,87.43
2023-04-29T22:26:02.902Z,87.38
2023-04-29T22:28:30.264Z,87.13
2023-04-29T22:30:57.585Z,87.89
2023-04-29T22:33:25.028Z,88.59
2023-04-29T22:35:52.410Z,87.81
2023-04-29T22:38:20.175Z,87.14
2023-04-29T22:40:51.667Z,86.88
2023-04-29T22:43:19.018Z,87.72
2023-04-29T22:45:56.091Z,88.21
2023-04-29T22:48:26.598Z,87.89
2023-04-29T22:50:56.832Z,88.08
2023-04-29T22:53:24.355Z,88.43
2023-04-29T22:55:56.264Z,88.36
2023-04-29T22:58:25.352Z,88.59
2023-04-29T23:00:57.667Z,88.56
2023-04-29T23:03:26.398Z,88.96
2023-04-29T23:06:00.969Z,88.59
2023-04-29T23:08:28.419Z,88.93
2023-04-29T23:10:55.905Z,89.76
2023-04-29T23:13:23.619Z,90.12
2023-04-29T23:15:50.956Z,89.39
2023-04-29T23:18:18.256Z,89.34
2023-04-29T23:20:49.203Z,89.70
2023-04-29T23:23:16.531Z,89.72
2023-04-29T23:25:45.288Z,89.87
2023-04-29T23:28:12.749Z,89.93
2023-04-29T23:30:40.072Z,89.96
2023-04-29T23:33:07.474Z,90.29
2023-04-29T23:35:35.127Z,90.17
2023-04-29T23:38:02.520Z,89.83
2023-04-29T23:40:31.183Z,88.78
2023-04-29T23:42:59.126Z,87.44
2023-04-29T23:45:26.573Z,86.14
2023-04-29T23:47:54.051Z,85.43
2023-04-29T23:50:21.357Z,85.38
2023-04-29T23:52:48.725Z,85.05
2023-04-29T23:55:16.201Z,85.89
2023-04-29T23:57:43.532Z,87.02
